^^
Station Historical Data
Daily Summary for May 27, 2021 Units:  English    Metric   Both
Daily Weekly Monthly Yearly
  High: Low: Average:
Temperature: 53.7 °F 43.6 °F 47.5 °F
Dew Point: 43.8 °F 36.6 °F 39.3 °F
Humidity: 83% 65% 73%
Wind Speed: 6mph 1mph 3mph
Wind Gust: 12mph - -
Wind- - SE
Pressure: 30.22 in 30.08 in -
Precipitation: 0.03 in    
 
 
Tabular Data for May 27, 2021
Time Temperature Dew Point Pressure Wind Wind Speed Wind Gust Humidity Rainfall Rate (Hourly) solar
00:00 53.7 °F 43.8 °F 30.08 in NNW 5 mph 5 mph 69% 0.00 in 0 W/m2
00:05 53.4 °F 43.5 °F 30.08 in NW 5 mph 6 mph 69% 0.00 in 0 W/m2
00:10 53.2 °F 43.7 °F 30.08 in NW 5 mph 5 mph 70% 0.00 in 0 W/m2
00:15 52.9 °F 43 °F 30.08 in NNE 4 mph 5 mph 69% 0.00 in 0 W/m2
00:20 52.7 °F 42.8 °F 30.08 in NNW 4 mph 4 mph 69% 0.00 in 0 W/m2
00:25 52.6 °F 42.7 °F 30.08 in NNW 5 mph 5 mph 69% 0.00 in 0 W/m2
00:30 52.3 °F 42.4 °F 30.08 in NNW 5 mph 5 mph 69% 0.00 in 0 W/m2
00:35 52.1 °F 42.2 °F 30.08 in SW 4 mph 5 mph 69% 0.00 in 0 W/m2
00:40 51.7 °F 41.1 °F 30.08 in North 4 mph 4 mph 67% 0.00 in 0 W/m2
00:45 51.5 °F 41.3 °F 30.09 in North 4 mph 4 mph 68% 0.00 in 0 W/m2
00:50 51.3 °F 40.7 °F 30.09 in NW 4 mph 4 mph 67% 0.00 in 0 W/m2
00:55 51 °F 40.4 °F 30.09 in WNW 5 mph 5 mph 67% 0.00 in 0 W/m2
01:00 50.7 °F 40.1 °F 30.09 in ENE 5 mph 5 mph 67% 0.00 in 0 W/m2
01:05 50.4 °F 39.5 °F 30.09 in NW 5 mph 5 mph 66% 0.00 in 0 W/m2
01:10 50.2 °F 39.3 °F 30.09 in NNW 5 mph 8 mph 66% 0.00 in 0 W/m2
01:15 49.9 °F 39 °F 30.10 in NNE 6 mph 8 mph 66% 0.00 in 0 W/m2
01:20 49.7 °F 38.4 °F 30.10 in NE 6 mph 6 mph 65% 0.00 in 0 W/m2
01:25 49.5 °F 38.2 °F 30.11 in NNW 6 mph 6 mph 65% 0.00 in 0 W/m2
01:30 49.3 °F 38.8 °F 30.11 in NW 6 mph 6 mph 67% 0.00 in 0 W/m2
01:35 49.2 °F 39.1 °F 30.11 in WNW 4 mph 10 mph 68% 0.00 in 0 W/m2
01:40 49 °F 38.1 °F 30.11 in NNE 4 mph 5 mph 66% 0.00 in 0 W/m2
01:45 48.9 °F 38 °F 30.11 in NW 5 mph 12 mph 66% 0.00 in 0 W/m2
01:50 48.7 °F 38.6 °F 30.11 in North 5 mph 5 mph 68% 0.00 in 0 W/m2
01:55 48.5 °F 37.7 °F 30.11 in North 6 mph 6 mph 66% 0.00 in 0 W/m2
02:00 48.4 °F 37.9 °F 30.11 in NNW 6 mph 6 mph 67% 0.00 in 0 W/m2
02:05 48.2 °F 38.1 °F 30.11 in NNW 5 mph 6 mph 68% 0.00 in 0 W/m2
02:10 48.1 °F 38 °F 30.11 in NNW 5 mph 5 mph 68% 0.00 in 0 W/m2
02:15 47.9 °F 37.8 °F 30.11 in NW 6 mph 6 mph 68% 0.00 in 0 W/m2
02:20 47.8 °F 37.7 °F 30.12 in NNE 5 mph 5 mph 68% 0.00 in 0 W/m2
02:25 47.7 °F 37.7 °F 30.12 in NNW 4 mph 8 mph 68% 0.00 in 0 W/m2
02:30 47.6 °F 37.6 °F 30.12 in NW 5 mph 5 mph 68% 0.00 in 0 W/m2
02:35 47.5 °F 37.5 °F 30.12 in NW 5 mph 5 mph 68% 0.00 in 0 W/m2
02:40 47.4 °F 37.7 °F 30.13 in North 4 mph 5 mph 69% 0.00 in 0 W/m2
02:45 47.2 °F 37.5 °F 30.13 in NW 4 mph 5 mph 69% 0.00 in 0 W/m2
02:50 47.2 °F 37.5 °F 30.13 in NNW 4 mph 4 mph 69% 0.00 in 0 W/m2
02:55 47.1 °F 37.4 °F 30.12 in WNW 4 mph 7 mph 69% 0.00 in 0 W/m2
03:00 46.9 °F 37.3 °F 30.12 in NW 5 mph 5 mph 69% 0.00 in 0 W/m2
03:05 46.8 °F 37.5 °F 30.12 in NW 4 mph 5 mph 70% 0.00 in 0 W/m2
03:10 46.7 °F 37.1 °F 30.12 in NE 4 mph 4 mph 69% 0.00 in 0 W/m2
03:15 46.7 °F 37.4 °F 30.12 in NW 3 mph 4 mph 70% 0.00 in 0 W/m2
03:20 46.7 °F 37.4 °F 30.12 in NE 3 mph 3 mph 70% 0.00 in 0 W/m2
03:25 46.7 °F 37.8 °F 30.12 in WNW 3 mph 3 mph 71% 0.00 in 0 W/m2
03:30 46.6 °F 37.3 °F 30.12 in NNW 4 mph 4 mph 70% 0.00 in 0 W/m2
03:35 46.5 °F 36.9 °F 30.12 in NW 4 mph 4 mph 69% 0.00 in 0 W/m2
03:40 46.3 °F 37 °F 30.13 in North 4 mph 4 mph 70% 0.00 in 0 W/m2
03:45 46.2 °F 36.6 °F 30.13 in NNW 5 mph 5 mph 69% 0.00 in 0 W/m2
03:50 46.1 °F 36.9 °F 30.13 in West 5 mph 5 mph 70% 0.00 in 0 W/m2
03:55 46.1 °F 36.9 °F 30.13 in NNW 5 mph 8 mph 70% 0.00 in 0 W/m2
04:00 46.1 °F 36.9 °F 30.13 in WNW 5 mph 11 mph 70% 0.00 in 0 W/m2
04:05 46 °F 36.8 °F 30.12 in WSW 4 mph 11 mph 70% 0.00 in 0 W/m2
04:10 46 °F 37.1 °F 30.13 in NNW 4 mph 8 mph 71% 0.00 in 0 W/m2
04:15 45.9 °F 37 °F 30.13 in South 4 mph 8 mph 71% 0.00 in 0 W/m2
04:20 45.9 °F 37 °F 30.13 in NNW 4 mph 4 mph 71% 0.00 in 0 W/m2
04:25 45.9 °F 37.4 °F 30.13 in ESE 4 mph 4 mph 72% 0.00 in 0 W/m2
04:30 45.9 °F 37.7 °F 30.12 in NE 4 mph 4 mph 73% 0.00 in 0 W/m2
04:35 45.8 °F 37.6 °F 30.12 in ENE 3 mph 4 mph 73% 0.00 in 0 W/m2
04:40 45.8 °F 37.3 °F 30.13 in NNE 3 mph 6 mph 72% 0.00 in 0 W/m2
04:45 45.6 °F 36.7 °F 30.13 in NE 4 mph 6 mph 71% 0.00 in 0 W/m2
04:50 45.5 °F 37 °F 30.13 in SSE 4 mph 4 mph 72% 0.00 in 0 W/m2
04:55 45.4 °F 37.6 °F 30.13 in ESE 3 mph 4 mph 74% 0.00 in 0 W/m2
05:00 45.4 °F 37.2 °F 30.13 in NE 3 mph 3 mph 73% 0.00 in 0 W/m2
05:05 45.3 °F 37.5 °F 30.14 in North 3 mph 4 mph 74% 0.00 in 0 W/m2
05:10 45.3 °F 37.5 °F 30.14 in NW 3 mph 3 mph 74% 0.00 in 0 W/m2
05:15 45.3 °F 37.5 °F 30.14 in NNE 3 mph 8 mph 74% 0.00 in 0 W/m2
05:20 45.2 °F 37.7 °F 30.14 in NW 4 mph 5 mph 75% 0.00 in 0 W/m2
05:25 45.2 °F 37.7 °F 30.14 in ENE 4 mph 5 mph 75% 0.00 in 0 W/m2
05:30 45.1 °F 37.6 °F 30.14 in East 4 mph 4 mph 75% 0.00 in 0 W/m2
05:35 45.1 °F 37.6 °F 30.14 in West 3 mph 4 mph 75% 0.00 in 0 W/m2
05:40 45 °F 37.6 °F 30.14 in NNE 3 mph 3 mph 75% 0.00 in 0 W/m2
05:45 45 °F 37.9 °F 30.14 in North 3 mph 3 mph 76% 0.00 in 0 W/m2
05:50 44.9 °F 37.8 °F 30.15 in North 3 mph 4 mph 76% 0.00 in 0 W/m2
05:55 44.8 °F 37.7 °F 30.15 in North 2 mph 4 mph 76% 0.00 in 5 W/m2
06:00 44.9 °F 38.1 °F 30.15 in East 2 mph 2 mph 77% 0.00 in 7 W/m2
06:05 44.9 °F 38.1 °F 30.15 in NNW 2 mph 2 mph 77% 0.00 in 9 W/m2
06:10 44.8 °F 38 °F 30.16 in ENE 2 mph 3 mph 77% 0.00 in 11 W/m2
06:15 44.7 °F 37.9 °F 30.16 in WNW 3 mph 4 mph 77% 0.00 in 12 W/m2
06:20 44.7 °F 38.3 °F 30.16 in NW 3 mph 5 mph 78% 0.00 in 14 W/m2
06:25 44.7 °F 38.3 °F 30.16 in NE 3 mph 5 mph 78% 0.00 in 19 W/m2
06:30 44.6 °F 37.8 °F 30.16 in ESE 3 mph 4 mph 77% 0.00 in 21 W/m2
06:35 44.7 °F 38.3 °F 30.16 in SE 2 mph 4 mph 78% 0.00 in 21 W/m2
06:40 44.7 °F 38.3 °F 30.17 in NNE 2 mph 3 mph 78% 0.00 in 21 W/m2
06:45 44.7 °F 38.6 °F 30.17 in NNW 2 mph 3 mph 79% 0.00 in 23 W/m2
06:50 44.7 °F 38.6 °F 30.17 in NNE 2 mph 3 mph 79% 0.00 in 30 W/m2
06:55 44.7 °F 38.6 °F 30.17 in NNE 2 mph 3 mph 79% 0.00 in 37 W/m2
07:00 44.8 °F 38.7 °F 30.17 in NNW 2 mph 2 mph 79% 0.00 in 42 W/m2
07:05 44.9 °F 38.8 °F 30.18 in North 2 mph 3 mph 79% 0.00 in 46 W/m2
07:10 44.9 °F 39.1 °F 30.18 in NW 2 mph 2 mph 80% 0.00 in 62 W/m2
07:15 45 °F 39.2 °F 30.18 in North 2 mph 2 mph 80% 0.00 in 54 W/m2
07:20 45 °F 39.2 °F 30.18 in East 2 mph 2 mph 80% 0.00 in 70 W/m2
07:25 45.1 °F 39.6 °F 30.18 in ENE 2 mph 3 mph 81% 0.00 in 60 W/m2
07:30 45.2 °F 39.7 °F 30.18 in NNW 2 mph 2 mph 81% 0.00 in 72 W/m2
07:35 45.4 °F 39.9 °F 30.18 in NNW 2 mph 2 mph 81% 0.00 in 60 W/m2
07:40 45.4 °F 40.2 °F 30.19 in NNW 2 mph 3 mph 82% 0.00 in 72 W/m2
07:45 45.7 °F 40.5 °F 30.18 in NNE 2 mph 3 mph 82% 0.00 in 70 W/m2
07:50 45.9 °F 41 °F 30.19 in NE 3 mph 3 mph 83% 0.00 in 84 W/m2
07:55 46.1 °F 41.2 °F 30.19 in NE 3 mph 7 mph 83% 0.00 in 88 W/m2
08:00 46.3 °F 41.4 °F 30.19 in NNW 3 mph 3 mph 83% 0.00 in 98 W/m2
08:05 46.5 °F 41.6 °F 30.19 in NNE 3 mph 3 mph 83% 0.00 in 153 W/m2
08:10 46.7 °F 40.9 °F 30.19 in SE 3 mph 4 mph 80% 0.00 in 163 W/m2
08:15 46.9 °F 41.1 °F 30.19 in NNE 3 mph 4 mph 80% 0.00 in 185 W/m2
08:20 47.1 °F 40.9 °F 30.18 in East 3 mph 3 mph 79% 0.00 in 146 W/m2
08:25 47.3 °F 40.5 °F 30.18 in East 3 mph 3 mph 77% 0.00 in 225 W/m2
08:30 47.6 °F 40.7 °F 30.18 in ENE 3 mph 3 mph 77% 0.00 in 431 W/m2
08:35 47.8 °F 40.9 °F 30.19 in NE 3 mph 3 mph 77% 0.00 in 475 W/m2
08:40 48 °F 40.8 °F 30.19 in East 3 mph 3 mph 76% 0.00 in 162 W/m2
08:45 48.2 °F 41 °F 30.19 in ENE 2 mph 3 mph 76% 0.00 in 508 W/m2
08:50 48.3 °F 41.1 °F 30.19 in NE 2 mph 2 mph 76% 0.00 in 190 W/m2
08:55 48.5 °F 40.9 °F 30.19 in NE 3 mph 3 mph 75% 0.00 in 387 W/m2
09:00 48.5 °F 40.9 °F 30.19 in ENE 3 mph 3 mph 75% 0.00 in 207 W/m2
09:05 48.5 °F 40.6 °F 30.20 in East 3 mph 4 mph 74% 0.00 in 357 W/m2
09:10 48.6 °F 41 °F 30.20 in SSE 3 mph 3 mph 75% 0.00 in 561 W/m2
09:15 48.8 °F 41.2 °F 30.20 in East 3 mph 4 mph 75% 0.00 in 190 W/m2
09:20 48.8 °F 41.2 °F 30.20 in SE 3 mph 3 mph 75% 0.00 in 248 W/m2
09:25 48.8 °F 40.9 °F 30.20 in East 3 mph 3 mph 74% 0.00 in 214 W/m2
09:30 48.8 °F 40.9 °F 30.20 in East 3 mph 3 mph 74% 0.00 in 248 W/m2
09:35 48.9 °F 41.3 °F 30.20 in ENE 3 mph 3 mph 75% 0.00 in 693 W/m2
09:40 49 °F 41.1 °F 30.20 in NE 3 mph 3 mph 74% 0.00 in 622 W/m2
09:45 49.1 °F 41.5 °F 30.20 in ENE 3 mph 3 mph 75% 0.00 in 594 W/m2
09:50 49.2 °F 41.3 °F 30.20 in ENE 3 mph 3 mph 74% 0.00 in 608 W/m2
09:55 49.3 °F 41.4 °F 30.20 in NE 3 mph 3 mph 74% 0.00 in 608 W/m2
10:00 49.4 °F 41.5 °F 30.20 in NE 2 mph 2 mph 74% 0.00 in 717 W/m2
10:05 49.5 °F 41.6 °F 30.20 in NNW 2 mph 2 mph 74% 0.00 in 652 W/m2
10:10 49.9 °F 41.9 °F 30.20 in ENE 2 mph 3 mph 74% 0.00 in 649 W/m2
10:15 50.1 °F 41.8 °F 30.20 in East 3 mph 4 mph 73% 0.00 in 642 W/m2
10:20 50.2 °F 41.9 °F 30.20 in ESE 3 mph 3 mph 73% 0.00 in 652 W/m2
10:25 50.4 °F 42.1 °F 30.20 in ENE 3 mph 3 mph 73% 0.00 in 666 W/m2
10:30 50.4 °F 42.4 °F 30.20 in NW 3 mph 3 mph 74% 0.00 in 675 W/m2
10:35 50.5 °F 42.2 °F 30.20 in SSE 3 mph 3 mph 73% 0.00 in 682 W/m2
10:40 50.6 °F 42.3 °F 30.19 in NE 3 mph 3 mph 73% 0.00 in 693 W/m2
10:45 50.6 °F 41.5 °F 30.19 in WNW 3 mph 3 mph 71% 0.00 in 707 W/m2
10:50 50.6 °F 41.9 °F 30.18 in NE 3 mph 3 mph 72% 0.00 in 737 W/m2
10:55 50.5 °F 41.8 °F 30.19 in NE 3 mph 3 mph 72% 0.00 in 715 W/m2
11:00 50.5 °F 42.2 °F 30.20 in East 3 mph 3 mph 73% 0.00 in 763 W/m2
11:05 50.6 °F 42.3 °F 30.20 in NE 3 mph 3 mph 73% 0.00 in 791 W/m2
11:10 50.7 °F 42.4 °F 30.20 in NE 3 mph 3 mph 73% 0.00 in 810 W/m2
11:15 50.8 °F 42.1 °F 30.20 in ENE 3 mph 3 mph 72% 0.00 in 731 W/m2
11:20 50.8 °F 42.1 °F 30.20 in East 3 mph 7 mph 72% 0.00 in 721 W/m2
11:25 50.7 °F 42 °F 30.20 in ESE 3 mph 7 mph 72% 0.00 in 809 W/m2
11:30 50.6 °F 41.9 °F 30.20 in ENE 3 mph 3 mph 72% 0.00 in 802 W/m2
11:35 50.6 °F 42.3 °F 30.20 in NE 3 mph 5 mph 73% 0.00 in 824 W/m2
11:40 50.7 °F 42 °F 30.20 in ENE 3 mph 3 mph 72% 0.00 in 800 W/m2
11:45 50.8 °F 42.5 °F 30.21 in NNE 3 mph 3 mph 73% 0.00 in 835 W/m2
11:50 51.1 °F 42.7 °F 30.22 in ENE 2 mph 4 mph 73% 0.00 in 840 W/m2
11:55 51.2 °F 42.5 °F 30.22 in NNE 3 mph 5 mph 72% 0.00 in 837 W/m2
12:00 51.1 °F 42 °F 30.22 in NW 3 mph 3 mph 71% 0.00 in 858 W/m2
12:05 51.2 °F 42.1 °F 30.22 in NE 3 mph 3 mph 71% 0.00 in 877 W/m2
12:10 51.2 °F 41.7 °F 30.22 in SE 3 mph 3 mph 70% 0.00 in 939 W/m2
12:15 51.3 °F 42.2 °F 30.22 in East 3 mph 3 mph 71% 0.00 in 545 W/m2
12:20 51.3 °F 41.8 °F 30.22 in NW 3 mph 3 mph 70% 0.00 in 475 W/m2
12:25 51.1 °F 41.7 °F 30.22 in East 3 mph 3 mph 70% 0.00 in 487 W/m2
12:30 50.8 °F 41.4 °F 30.22 in East 3 mph 6 mph 70% 0.00 in 679 W/m2
12:35 50.7 °F 41.3 °F 30.22 in NE 3 mph 6 mph 70% 0.00 in 772 W/m2
12:40 50.5 °F 40.7 °F 30.22 in NE 3 mph 3 mph 69% 0.00 in 373 W/m2
12:45 50.1 °F 40.7 °F 30.22 in ENE 3 mph 3 mph 70% 0.00 in 663 W/m2
12:50 50 °F 41 °F 30.22 in ENE 3 mph 3 mph 71% 0.00 in 647 W/m2
12:55 50.3 °F 41.3 °F 30.22 in East 2 mph 4 mph 71% 0.00 in 566 W/m2
13:00 50.6 °F 41.9 °F 30.22 in ENE 3 mph 3 mph 72% 0.00 in 726 W/m2
13:05 51.2 °F 41.7 °F 30.22 in NNE 3 mph 3 mph 70% 0.00 in 772 W/m2
13:10 51.2 °F 41.4 °F 30.22 in NE 3 mph 3 mph 69% 0.00 in 691 W/m2
13:15 51.1 °F 41.3 °F 30.22 in North 3 mph 5 mph 69% 0.00 in 777 W/m2
13:20 51.5 °F 42 °F 30.22 in NE 3 mph 3 mph 70% 0.00 in 612 W/m2
13:25 51.7 °F 41.9 °F 30.22 in ENE 3 mph 5 mph 69% 0.00 in 680 W/m2
13:30 51.7 °F 41.5 °F 30.22 in East 3 mph 4 mph 68% 0.00 in 666 W/m2
13:35 51.6 °F 41 °F 30.22 in East 3 mph 4 mph 67% 0.00 in 461 W/m2
13:40 51.5 °F 40.9 °F 30.22 in ENE 3 mph 3 mph 67% 0.00 in 522 W/m2
13:45 51.4 °F 41.2 °F 30.22 in East 2 mph 3 mph 68% 0.00 in 522 W/m2
13:50 51.4 °F 40.8 °F 30.22 in East 2 mph 3 mph 67% 0.00 in 492 W/m2
13:55 51.5 °F 41.3 °F 30.22 in ENE 2 mph 3 mph 68% 0.00 in 487 W/m2
14:00 51.2 °F 40.6 °F 30.22 in ENE 2 mph 2 mph 67% 0.00 in 503 W/m2
14:05 51.1 °F 41.3 °F 30.22 in NE 2 mph 2 mph 69% 0.00 in 454 W/m2
14:10 51.1 °F 40.9 °F 30.22 in ENE 2 mph 2 mph 68% 0.00 in 445 W/m2
14:15 51.1 °F 40.9 °F 30.22 in North 2 mph 2 mph 68% 0.00 in 482 W/m2
14:20 51.1 °F 41.3 °F 30.22 in ENE 2 mph 2 mph 69% 0.00 in 464 W/m2
14:25 51 °F 41.2 °F 30.22 in NNE 2 mph 2 mph 69% 0.00 in 410 W/m2
14:30 50.8 °F 41 °F 30.22 in ESE 3 mph 4 mph 69% 0.00 in 411 W/m2
14:35 50.7 °F 41.3 °F 30.21 in North 3 mph 6 mph 70% 0.00 in 369 W/m2
14:40 50.6 °F 41.2 °F 30.21 in ENE 3 mph 3 mph 70% 0.00 in 338 W/m2
14:45 50.3 °F 40.5 °F 30.21 in NE 3 mph 3 mph 69% 0.00 in 350 W/m2
14:50 50.2 °F 40.4 °F 30.21 in NE 3 mph 4 mph 69% 0.00 in 390 W/m2
14:55 50 °F 40.6 °F 30.20 in ESE 3 mph 4 mph 70% 0.00 in 376 W/m2
15:00 49.9 °F 40.1 °F 30.20 in East 3 mph 3 mph 69% 0.00 in 318 W/m2
15:05 49.8 °F 39.7 °F 30.20 in ENE 3 mph 5 mph 68% 0.00 in 362 W/m2
15:10 49.6 °F 39.5 °F 30.20 in East 3 mph 4 mph 68% 0.00 in 431 W/m2
15:15 49.7 °F 40.3 °F 30.20 in ENE 3 mph 4 mph 70% 0.00 in 431 W/m2
15:20 49.8 °F 40 °F 30.20 in NE 3 mph 3 mph 69% 0.00 in 390 W/m2
15:25 49.7 °F 39.6 °F 30.20 in East 3 mph 3 mph 68% 0.00 in 380 W/m2
15:30 49.7 °F 39.6 °F 30.19 in ESE 3 mph 3 mph 68% 0.00 in 381 W/m2
15:35 49.7 °F 39.2 °F 30.19 in NE 3 mph 4 mph 67% 0.00 in 360 W/m2
15:45 49.7 °F 39.6 °F 30.20 in ESE 3 mph 6 mph 68% 0.00 in 292 W/m2
15:50 49.7 °F 39.2 °F 30.19 in ESE 3 mph 3 mph 67% 0.00 in 316 W/m2
15:55 49.6 °F 39.1 °F 30.20 in North 3 mph 3 mph 67% 0.00 in 299 W/m2
16:00 49.6 °F 39.1 °F 30.19 in NNE 3 mph 5 mph 67% 0.00 in 279 W/m2
16:05 49.6 °F 39.5 °F 30.19 in ENE 2 mph 5 mph 68% 0.00 in 258 W/m2
16:10 49.6 °F 39.1 °F 30.19 in ENE 3 mph 3 mph 67% 0.00 in 246 W/m2
16:15 49.6 °F 39.5 °F 30.19 in North 3 mph 3 mph 68% 0.00 in 236 W/m2
16:20 49.5 °F 39.4 °F 30.19 in NE 2 mph 2 mph 68% 0.00 in 223 W/m2
16:25 49.5 °F 39.7 °F 30.20 in NE 3 mph 3 mph 69% 0.00 in 206 W/m2
16:30 49.4 °F 39.7 °F 30.19 in ENE 3 mph 3 mph 69% 0.00 in 193 W/m2
16:35 49.4 °F 40 °F 30.20 in ENE 3 mph 3 mph 70% 0.00 in 197 W/m2
16:40 49.1 °F 39 °F 30.20 in East 3 mph 4 mph 68% 0.00 in 176 W/m2
16:45 48.8 °F 39.1 °F 30.20 in NE 4 mph 4 mph 69% 0.00 in 149 W/m2
16:50 48.5 °F 38.4 °F 30.20 in NNE 3 mph 3 mph 68% 0.00 in 123 W/m2
16:55 48.2 °F 38.5 °F 30.19 in NE 3 mph 4 mph 69% 0.00 in 121 W/m2
17:00 48 °F 38.3 °F 30.19 in East 3 mph 4 mph 69% 0.00 in 118 W/m2
17:05 47.9 °F 38.6 °F 30.18 in NNW 3 mph 4 mph 70% 0.00 in 141 W/m2
17:10 47.8 °F 38.8 °F 30.18 in ENE 3 mph 3 mph 71% 0.00 in 146 W/m2
17:15 47.7 °F 39.1 °F 30.18 in ENE 3 mph 8 mph 72% 0.00 in 132 W/m2
17:20 47.5 °F 38.2 °F 30.18 in NE 3 mph 3 mph 70% 0.00 in 121 W/m2
17:25 47.4 °F 38.5 °F 30.18 in NE 3 mph 4 mph 71% 0.00 in 105 W/m2
17:30 47.2 °F 38.3 °F 30.18 in North 3 mph 6 mph 71% 0.00 in 109 W/m2
17:35 47.2 °F 38.3 °F 30.18 in ENE 3 mph 6 mph 71% 0.00 in 116 W/m2
17:40 47.1 °F 38.2 °F 30.18 in NE 3 mph 3 mph 71% 0.00 in 104 W/m2
17:45 47.1 °F 38.2 °F 30.18 in ENE 2 mph 3 mph 71% 0.00 in 107 W/m2
17:50 47.1 °F 38.2 °F 30.18 in East 3 mph 3 mph 71% 0.00 in 104 W/m2
17:55 47 °F 37.7 °F 30.18 in NE 3 mph 3 mph 70% 0.00 in 84 W/m2
18:00 46.9 °F 38 °F 30.18 in ENE 2 mph 2 mph 71% 0.00 in 69 W/m2
18:05 46.9 °F 38 °F 30.18 in NE 2 mph 2 mph 71% 0.00 in 63 W/m2
18:10 46.9 °F 37.6 °F 30.18 in ESE 2 mph 6 mph 70% 0.00 in 47 W/m2
18:15 46.7 °F 37.8 °F 30.18 in East 2 mph 6 mph 71% 0.00 in 62 W/m2
18:20 46.7 °F 38.1 °F 30.18 in ENE 2 mph 2 mph 72% 0.00 in 62 W/m2
18:25 46.5 °F 38.3 °F 30.17 in East 2 mph 2 mph 73% 0.00 in 56 W/m2
18:30 46.3 °F 38.1 °F 30.16 in NE 3 mph 3 mph 73% 0.00 in 51 W/m2
18:35 46.1 °F 38.6 °F 30.16 in NE 3 mph 5 mph 75% 0.00 in 49 W/m2
18:40 46 °F 38.5 °F 30.16 in ENE 2 mph 2 mph 75% 0.00 in 49 W/m2
18:45 45.9 °F 38.8 °F 30.15 in ESE 2 mph 2 mph 76% 0.00 in 47 W/m2
18:50 45.8 °F 38.3 °F 30.16 in NE 2 mph 4 mph 75% 0.00 in 51 W/m2
18:55 45.7 °F 37.5 °F 30.17 in East 3 mph 4 mph 73% 0.00 in 44 W/m2
19:00 45.6 °F 37.8 °F 30.16 in East 3 mph 3 mph 74% 0.00 in 33 W/m2
19:05 45.5 °F 38 °F 30.16 in East 2 mph 3 mph 75% 0.00 in 53 W/m2
19:10 45.6 °F 38.8 °F 30.16 in SE 2 mph 2 mph 77% 0.00 in 47 W/m2
19:15 45.5 °F 38.7 °F 30.15 in East 2 mph 3 mph 77% 0.00 in 49 W/m2
19:20 45.3 °F 38.8 °F 30.15 in ENE 2 mph 2 mph 78% 0.00 in 44 W/m2
19:25 45.2 °F 38.7 °F 30.14 in East 2 mph 2 mph 78% 0.00 in 44 W/m2
19:30 45.1 °F 39 °F 30.14 in ESE 2 mph 3 mph 79% 0.00 in 42 W/m2
19:35 44.9 °F 38.8 °F 30.13 in NE 2 mph 3 mph 79% 0.00 in 35 W/m2
19:40 44.7 °F 38.6 °F 30.13 in ESE 2 mph 3 mph 79% 0.00 in 25 W/m2
19:45 44.5 °F 38.4 °F 30.12 in ESE 2 mph 4 mph 79% 0.00 in 19 W/m2
19:50 44.3 °F 38.2 °F 30.11 in ENE 2 mph 3 mph 79% 0.00 in 19 W/m2
19:55 44.2 °F 38.1 °F 30.12 in East 3 mph 3 mph 79% 0.00 in 14 W/m2
20:00 44.2 °F 38.1 °F 30.12 in East 2 mph 4 mph 79% 0.00 in 11 W/m2
20:05 44 °F 37.9 °F 30.12 in ESE 3 mph 6 mph 79% 0.00 in 14 W/m2
20:10 44 °F 37.9 °F 30.13 in East 3 mph 4 mph 79% 0.00 in 12 W/m2
20:15 43.9 °F 37.5 °F 30.13 in SSE 3 mph 4 mph 78% 0.00 in 11 W/m2
20:20 43.9 °F 37.5 °F 30.13 in ESE 2 mph 2 mph 78% 0.00 in 9 W/m2
20:25 43.8 °F 37.4 °F 30.13 in East 2 mph 2 mph 78% 0.00 in 11 W/m2
20:30 43.7 °F 37 °F 30.13 in ENE 2 mph 2 mph 77% 0.00 in 12 W/m2
20:35 43.6 °F 37.2 °F 30.13 in ESE 2 mph 2 mph 78% 0.00 in 12 W/m2
20:40 43.6 °F 37.2 °F 30.13 in South 2 mph 2 mph 78% 0.00 in 11 W/m2
20:45 43.6 °F 37.2 °F 30.13 in South 2 mph 2 mph 78% 0.00 in 9 W/m2
20:50 43.6 °F 37.5 °F 30.14 in East 2 mph 2 mph 79% 0.00 in 5 W/m2
20:55 43.6 °F 37.5 °F 30.14 in East 1 mph 2 mph 79% 0.00 in 0 W/m2
21:00 43.6 °F 37.5 °F 30.14 in East 2 mph 2 mph 79% 0.00 in 0 W/m2
21:05 43.6 °F 37.5 °F 30.14 in ENE 1 mph 2 mph 79% 0.00 in 0 W/m2
21:10 43.6 °F 37.5 °F 30.14 in SSE 1 mph 1 mph 79% 0.00 in 0 W/m2
21:15 43.6 °F 37.5 °F 30.14 in East 2 mph 2 mph 79% 0.00 in 0 W/m2
21:20 43.6 °F 37.5 °F 30.13 in East 1 mph 1 mph 79% 0.00 in 0 W/m2
21:25 43.6 °F 37.5 °F 30.14 in ESE 1 mph 6 mph 79% 0.00 in 0 W/m2
21:30 43.7 °F 37.6 °F 30.14 in East 2 mph 3 mph 79% 0.00 in 0 W/m2
21:35 43.7 °F 37.3 °F 30.14 in SE 2 mph 3 mph 78% 0.00 in 0 W/m2
21:40 43.7 °F 37.3 °F 30.15 in SE 2 mph 2 mph 78% 0.00 in 0 W/m2
21:45 43.8 °F 37.7 °F 30.15 in SE 1 mph 2 mph 79% 0.00 in 0 W/m2
21:50 43.9 °F 37.8 °F 30.15 in East 2 mph 2 mph 79% 0.00 in 0 W/m2
21:55 43.8 °F 38 °F 30.15 in East 2 mph 2 mph 80% 0.00 in 0 W/m2
22:00 43.9 °F 38.1 °F 30.16 in ESE 2 mph 2 mph 80% 0.00 in 0 W/m2
22:05 43.8 °F 37.7 °F 30.16 in ESE 2 mph 2 mph 79% 0.00 in 0 W/m2
22:10 43.7 °F 37.6 °F 30.16 in East 2 mph 7 mph 79% 0.00 in 0 W/m2
22:15 43.8 °F 37.7 °F 30.17 in ESE 2 mph 7 mph 79% 0.00 in 0 W/m2
22:20 43.7 °F 37.6 °F 30.17 in SE 2 mph 2 mph 79% 0.00 in 0 W/m2
22:25 43.6 °F 37.2 °F 30.17 in ESE 2 mph 2 mph 78% 0.00 in 0 W/m2
22:30 43.6 °F 37.2 °F 30.17 in SE 2 mph 2 mph 78% 0.00 in 0 W/m2
22:35 43.6 °F 37.2 °F 30.17 in ESE 2 mph 2 mph 78% 0.00 in 0 W/m2
22:40 43.6 °F 37.2 °F 30.17 in ESE 1 mph 4 mph 78% 0.00 in 0 W/m2
22:45 43.6 °F 37.2 °F 30.16 in ESE 1 mph 4 mph 78% 0.00 in 0 W/m2
22:50 43.7 °F 37.3 °F 30.16 in ENE 1 mph 2 mph 78% 0.00 in 0 W/m2
22:55 43.7 °F 37.9 °F 30.16 in ENE 1 mph 2 mph 80% 0.00 in 0 W/m2
23:00 43.9 °F 38.4 °F 30.16 in East 1 mph 1 mph 81% 0.00 in 0 W/m2
23:05 44 °F 38.5 °F 30.16 in ESE 1 mph 4 mph 81% 0.00 in 0 W/m2
23:10 44.2 °F 39.1 °F 30.16 in NE 2 mph 2 mph 82% 0.00 in 0 W/m2
23:15 44.4 °F 38.9 °F 30.15 in ESE 3 mph 3 mph 81% 0.00 in 0 W/m2
23:20 44.6 °F 38.8 °F 30.15 in ESE 3 mph 6 mph 80% 0.00 in 0 W/m2
23:25 44.7 °F 38.9 °F 30.15 in NE 3 mph 6 mph 80% 0.00 in 0 W/m2
23:30 44.9 °F 38.8 °F 30.15 in East 3 mph 3 mph 79% 0.00 in 0 W/m2
23:35 45.1 °F 39 °F 30.15 in ESE 2 mph 4 mph 79% 0.00 in 0 W/m2
23:40 45.4 °F 38.9 °F 30.14 in East 3 mph 4 mph 78% 0.00 in 0 W/m2
23:45 45.6 °F 39.1 °F 30.14 in NNE 4 mph 9 mph 78% 0.00 in 0 W/m2
23:50 45.8 °F 39.3 °F 30.14 in NE 4 mph 4 mph 78% 0.00 in 0 W/m2
23:55 46 °F 39.5 °F 30.13 in NNE 4 mph 4 mph 78% 0.00 in 0 W/m2
Sand Point, Michigan, USA
Compliments of Weather Underground - 2 mb